Terminal Aerodrome Forecast
Issued by NWS

Home | Current Version | Previous Version | Text Only | Print | Product List | Glossary On
Versions: 1 2 3 4 5 6 7 8 9 10 11 12 13 14 15
000
FTUS46 KPDT 011100 CCA
TAFDLS
TAF COR
KDLS 011144Z 0112/0212 32010G15KT P6SM BKN150
     FM012000 32014G21KT P6SM VCTS SCT120CB BKN200
     FM020500 32009KT P6SM FEW150=

USA.gov is the U.S. government's official web portal to all federal, state and local government web resources and services.